Pipestem, WV (25979)

1:20 PM EST on January 29, 2015 (GMT -0500)
Oxley Hollow Road | Change Station
CLOSE
Current Station
Personal Weather Station
Location: Princeton, WV
Elevation: 2411 ft
Nearby Weather Stations
Active Advisory: Special Statement

Elev 2411 ft 37.44 °N, 81.03 °W | Updated 1 minute ago

Overcast
Overcast
34.7 °F
Feels Like 35 °F
N
1.0
Wind Variable Wind from NNE
Gusts 6.0 mph

Today
High -- | Low -- °F
--% Chance of Precip.
Yesterday
High -- | Low -- °F
Precip. -- in
7:29 AM 5:44 PM
Waxing Gibbous, 76% visible
Pressure 30.05 in
Visibility 10.0 miles
Clouds Overcast 4500 ft
Windchill 35 °F
Dew Point 32 °F
Humidity 89%
Rainfall -999.00 in
Snow Depth Not available.
UV 1 out of 12
Pollen .30 out of 12
Air Quality Not available.
Flu Activity Not available.
METAR KBLF 291752Z AUTO 20008KT 150V240 10SM OVC045 05/M03 A3001 RMK AO2 RAE49 SLP174 P0001 60001 T00501033 10083 20006 58023

More Conditions Fewer Conditions

Pressure 30.05 in
Visibility 10.0 miles
Clouds Overcast 4500 ft
Windchill 35 °F
Dew Point 32 °F
Humidity 89%
Rainfall -999.00 in
Snow Depth Not available.
UV 1 out of 12
Pollen .30 out of 12
Air Quality Not available.
Flu Activity Not available.
METAR KBLF 291752Z AUTO 20008KT 150V240 10SM OVC045 05/M03 A3001 RMK AO2 RAE49 SLP174 P0001 60001 T00501033 10083 20006 58023

More Conditions Fewer Conditions

10-Day Weather Forecast

Almanac

Astronomy

Jan. 29, 2015 Rise Set
Actual Time
Civil Twilight
Nautical Twilight
Astronomical Twilight
Moon
Length of Visible Light
Length of Day
Tomorrow will be .
, % of the Moon is Illuminated

Today's Extremes

State Highs State Lows

Community

WunderPhotos

Upload Photos

1,791,512 photos uploaded!

WunderBlogs® & News

Nearby

Air Quality

  Air Quality AQ Index Pollutant
Not available.

Snow Depth

Station Depth Elevation

Earthquake Activity

City Distance Mag. Time & Date
Minimum magnitude displayed is 2.5.

Coastal Water Temperatures

Place Temperature

Nearby Weather Stations